createdAt,value
2018-09-29T00:01:44.054Z,58.90
2018-09-29T00:04:12.454Z,58.90
2018-09-29T00:06:40.825Z,58.90
2018-09-29T00:09:11.035Z,59.10
2018-09-29T00:11:39.606Z,59.40
2018-09-29T00:14:08.737Z,59.70
2018-09-29T00:16:38.078Z,59.70
2018-09-29T00:19:06.511Z,59.80
2018-09-29T00:21:35.359Z,60.00
2018-09-29T00:24:03.631Z,60.30
2018-09-29T00:26:32.041Z,60.30
2018-09-29T00:29:00.302Z,60.20
2018-09-29T00:31:28.874Z,60.30
2018-09-29T00:33:57.274Z,60.70
2018-09-29T00:36:25.652Z,60.90
2018-09-29T00:38:54.026Z,61.00
2018-09-29T00:41:22.285Z,61.40
2018-09-29T00:43:50.715Z,61.50
2018-09-29T00:46:19.156Z,62.00
2018-09-29T00:48:47.570Z,62.20
2018-09-29T00:51:16.020Z,62.50
2018-09-29T00:53:44.598Z,62.60
2018-09-29T00:56:12.978Z,62.90
2018-09-29T00:58:41.278Z,63.30
2018-09-29T01:01:09.600Z,63.20
2018-09-29T01:03:38.007Z,63.50
2018-09-29T01:06:06.382Z,63.50
2018-09-29T01:08:34.668Z,63.80
2018-09-29T01:11:03.288Z,63.80
2018-09-29T01:13:31.804Z,63.90
2018-09-29T01:16:00.141Z,64.10
2018-09-29T01:18:28.713Z,64.30
2018-09-29T01:20:57.464Z,64.50
2018-09-29T01:23:25.905Z,64.40
2018-09-29T01:25:54.315Z,64.50
2018-09-29T01:28:22.666Z,64.20
2018-09-29T01:30:51.001Z,64.50
2018-09-29T01:33:19.299Z,64.40
2018-09-29T01:35:47.596Z,64.40
2018-09-29T01:38:16.004Z,64.30
2018-09-29T01:40:44.425Z,64.50
2018-09-29T01:43:12.916Z,64.40
2018-09-29T01:45:41.260Z,64.40
2018-09-29T01:48:09.758Z,64.60
2018-09-29T01:50:38.158Z,64.90
2018-09-29T01:53:06.461Z,65.10
2018-09-29T01:55:35.144Z,65.50
2018-09-29T01:58:03.575Z,65.90
2018-09-29T02:00:31.902Z,66.10
2018-09-29T02:03:05.583Z,66.00
2018-09-29T02:05:34.017Z,66.10
2018-09-29T02:08:02.539Z,66.30
2018-09-29T02:10:30.904Z,67.30
2018-09-29T02:12:59.310Z,68.20
2018-09-29T02:15:27.679Z,68.10
2018-09-29T02:17:56.031Z,68.10
2018-09-29T02:20:24.991Z,67.80
2018-09-29T02:22:53.521Z,67.60
2018-09-29T02:25:21.917Z,67.60
2018-09-29T02:27:50.310Z,67.50
2018-09-29T02:30:18.786Z,67.60
2018-09-29T02:32:47.605Z,67.40
2018-09-29T02:35:16.067Z,67.80
2018-09-29T02:37:44.534Z,68.20
2018-09-29T02:40:12.940Z,68.80
2018-09-29T02:42:41.345Z,68.60
2018-09-29T02:45:09.998Z,68.90
2018-09-29T02:47:38.379Z,69.10
2018-09-29T02:50:07.048Z,69.20
2018-09-29T02:52:36.022Z,69.10
2018-09-29T02:55:04.470Z,69.30
2018-09-29T02:57:32.822Z,69.40
2018-09-29T03:00:01.087Z,69.30
2018-09-29T03:02:29.365Z,69.30
2018-09-29T03:04:57.784Z,69.40
2018-09-29T03:07:26.151Z,70.30
2018-09-29T03:09:54.425Z,70.70
2018-09-29T03:12:22.750Z,70.60
2018-09-29T03:14:50.961Z,70.40
2018-09-29T03:17:19.222Z,70.30
2018-09-29T03:19:47.547Z,70.00
2018-09-29T03:22:15.813Z,70.10
2018-09-29T03:24:44.174Z,70.10
2018-09-29T03:27:12.569Z,70.10
2018-09-29T03:29:41.052Z,70.30
2018-09-29T03:32:09.373Z,70.10
2018-09-29T03:34:37.632Z,70.30
2018-09-29T03:37:06.103Z,70.70
2018-09-29T03:39:34.354Z,71.40
2018-09-29T03:42:02.817Z,71.90
2018-09-29T03:44:31.323Z,71.90
2018-09-29T03:46:59.591Z,72.00
2018-09-29T03:49:28.334Z,72.10
2018-09-29T03:51:57.308Z,72.00
2018-09-29T03:54:26.403Z,72.40
2018-09-29T03:56:54.662Z,72.30
2018-09-29T03:59:22.975Z,72.20
2018-09-29T04:01:57.698Z,72.70
2018-09-29T04:04:26.056Z,72.40
2018-09-29T04:06:54.376Z,73.10
2018-09-29T04:09:22.690Z,72.90
2018-09-29T04:11:51.068Z,72.50
2018-09-29T04:14:19.487Z,72.50
2018-09-29T04:16:47.779Z,72.50
2018-09-29T04:19:17.902Z,73.20
2018-09-29T04:21:48.105Z,73.20
2018-09-29T04:24:17.516Z,73.50
2018-09-29T04:26:46.093Z,73.40
2018-09-29T04:29:15.728Z,73.50
2018-09-29T04:31:44.059Z,74.30
2018-09-29T04:34:13.111Z,75.10
2018-09-29T04:36:41.877Z,75.30
2018-09-29T04:39:12.036Z,75.40
2018-09-29T04:41:40.483Z,75.30
2018-09-29T04:44:09.765Z,75.30
2018-09-29T04:46:38.155Z,75.20
2018-09-29T04:49:06.607Z,75.30
2018-09-29T04:51:35.059Z,75.50
2018-09-29T04:54:03.465Z,75.10
2018-09-29T04:56:32.197Z,74.90
2018-09-29T04:59:00.633Z,74.70
2018-09-29T05:01:28.991Z,74.20
2018-09-29T05:03:57.545Z,73.90
2018-09-29T05:06:26.373Z,73.60
2018-09-29T05:08:55.007Z,73.70
2018-09-29T05:11:23.484Z,73.50
2018-09-29T05:13:51.973Z,73.60
2018-09-29T05:16:20.412Z,74.00
2018-09-29T05:18:48.949Z,73.80
2018-09-29T05:21:18.639Z,73.90
2018-09-29T05:23:46.983Z,74.10
2018-09-29T05:26:17.378Z,74.70
2018-09-29T05:28:45.835Z,74.90
2018-09-29T05:31:14.258Z,74.90
2018-09-29T05:33:42.494Z,75.40
2018-09-29T05:36:10.764Z,75.40
2018-09-29T05:38:39.279Z,75.30
2018-09-29T05:41:07.726Z,75.50
2018-09-29T05:43:36.071Z,75.50
2018-09-29T05:46:04.501Z,76.00
2018-09-29T05:48:34.012Z,75.90
2018-09-29T05:51:02.363Z,76.40
2018-09-29T05:53:30.814Z,76.80
2018-09-29T05:55:59.357Z,77.50
2018-09-29T05:58:27.980Z,76.80
2018-09-29T06:00:59.893Z,76.50
2018-09-29T06:03:28.160Z,77.00
2018-09-29T06:05:56.556Z,76.20
2018-09-29T06:08:24.813Z,75.90
2018-09-29T06:10:54.171Z,75.80
2018-09-29T06:13:23.301Z,76.20
2018-09-29T06:15:52.469Z,76.60
2018-09-29T06:18:20.912Z,76.40
2018-09-29T06:20:49.560Z,76.50
2018-09-29T06:23:18.107Z,76.80
2018-09-29T06:25:46.467Z,76.80
2018-09-29T06:28:14.764Z,77.00
2018-09-29T06:30:43.240Z,76.90
2018-09-29T06:33:11.788Z,76.60
2018-09-29T06:35:40.404Z,76.20
2018-09-29T06:38:08.774Z,76.20
2018-09-29T06:40:37.813Z,75.80
2018-09-29T06:43:06.670Z,75.50
2018-09-29T06:45:35.127Z,75.20
2018-09-29T06:48:03.478Z,75.20
2018-09-29T06:50:32.117Z,75.40
2018-09-29T06:53:00.553Z,75.90
2018-09-29T06:55:29.234Z,76.00
2018-09-29T06:58:01.745Z,75.90
2018-09-29T07:00:30.788Z,76.70
2018-09-29T07:02:59.750Z,75.80
2018-09-29T07:05:28.273Z,75.60
2018-09-29T07:07:56.797Z,75.50
2018-09-29T07:10:27.448Z,75.90
2018-09-29T07:12:55.936Z,75.60
2018-09-29T07:15:24.318Z,75.20
2018-09-29T07:17:53.096Z,74.70
2018-09-29T07:20:22.449Z,74.80
2018-09-29T07:22:50.925Z,74.90
2018-09-29T07:25:20.863Z,74.80
2018-09-29T07:27:50.343Z,75.60
2018-09-29T07:30:19.773Z,74.70
2018-09-29T07:32:50.092Z,74.40
2018-09-29T07:35:18.775Z,74.30
2018-09-29T07:37:47.232Z,73.90
2018-09-29T07:40:15.867Z,73.90
2018-09-29T07:42:44.471Z,74.00
2018-09-29T07:45:13.704Z,74.20
2018-09-29T07:47:43.426Z,74.60
2018-09-29T07:50:12.264Z,74.40
2018-09-29T07:52:40.908Z,73.60
2018-09-29T07:55:09.275Z,73.10
2018-09-29T07:57:37.808Z,73.20
2018-09-29T08:00:06.331Z,73.40
2018-09-29T08:02:35.157Z,72.80
2018-09-29T08:05:03.836Z,72.50
2018-09-29T08:07:32.398Z,72.20
2018-09-29T08:10:01.116Z,72.10
2018-09-29T08:12:29.512Z,72.00
2018-09-29T08:14:57.948Z,71.60
2018-09-29T08:17:26.391Z,71.10
2018-09-29T08:19:54.773Z,70.90
2018-09-29T08:22:23.332Z,70.50
2018-09-29T08:24:51.700Z,70.30
2018-09-29T08:27:20.077Z,70.70
2018-09-29T08:29:48.686Z,70.60
2018-09-29T08:32:17.571Z,70.50
2018-09-29T08:34:46.215Z,70.50
2018-09-29T08:37:15.283Z,70.80
2018-09-29T08:39:43.588Z,70.70
2018-09-29T08:42:11.956Z,70.50
2018-09-29T08:44:40.554Z,70.50
2018-09-29T08:47:08.840Z,70.00
2018-09-29T08:49:37.543Z,69.60
2018-09-29T08:52:06.014Z,70.10
2018-09-29T08:54:34.782Z,69.30
2018-09-29T08:57:03.334Z,68.80
2018-09-29T08:59:31.919Z,68.10
2018-09-29T09:02:00.957Z,68.00
2018-09-29T09:04:29.722Z,66.20
2018-09-29T09:06:58.792Z,67.10
2018-09-29T09:09:27.345Z,66.40
2018-09-29T09:11:55.964Z,66.30
2018-09-29T09:14:24.263Z,64.60
2018-09-29T09:16:53.167Z,64.30
2018-09-29T09:19:21.614Z,64.80
2018-09-29T09:21:49.961Z,64.70
2018-09-29T09:24:18.542Z,64.70
2018-09-29T09:26:46.749Z,62.10
2018-09-29T09:29:18.588Z,62.50
2018-09-29T09:31:47.226Z,63.20
2018-09-29T09:34:15.720Z,63.30
2018-09-29T09:36:44.105Z,62.60
2018-09-29T09:39:13.060Z,62.50
2018-09-29T09:41:41.397Z,61.50
2018-09-29T09:44:09.698Z,60.60
2018-09-29T09:46:38.020Z,60.50
2018-09-29T09:49:07.323Z,60.50
2018-09-29T09:51:36.163Z,58.70
2018-09-29T09:54:04.648Z,59.40
2018-09-29T09:56:33.172Z,59.30
2018-09-29T09:59:01.787Z,58.80
2018-09-29T10:01:39.231Z,57.80
2018-09-29T10:04:08.202Z,57.70
2018-09-29T10:06:37.072Z,57.20
2018-09-29T10:09:09.095Z,57.60
2018-09-29T10:11:37.774Z,57.20
2018-09-29T10:14:06.338Z,57.20
2018-09-29T10:16:35.143Z,57.10
2018-09-29T10:19:04.157Z,56.90
2018-09-29T10:21:32.535Z,56.30
2018-09-29T10:24:01.123Z,55.80
2018-09-29T10:26:29.647Z,55.60
2018-09-29T10:29:04.689Z,55.80
2018-09-29T10:31:33.002Z,55.60
2018-09-29T10:34:01.677Z,55.90
2018-09-29T10:36:30.314Z,56.30
2018-09-29T10:38:58.846Z,56.20
2018-09-29T10:41:40.262Z,55.60
2018-09-29T10:44:09.019Z,56.10
2018-09-29T10:46:45.241Z,55.40
2018-09-29T10:49:13.777Z,55.90
2018-09-29T10:51:43.044Z,55.40
2018-09-29T10:54:11.687Z,55.30
2018-09-29T10:56:40.054Z,55.10
2018-09-29T10:59:08.828Z,55.40
2018-09-29T11:01:37.382Z,55.30
2018-09-29T11:04:06.980Z,55.40
2018-09-29T11:06:37.069Z,55.00
2018-09-29T11:09:07.973Z,54.70
2018-09-29T11:11:36.427Z,54.70
2018-09-29T11:14:05.839Z,54.70
2018-09-29T11:16:34.336Z,54.50
2018-09-29T11:19:02.830Z,54.50
2018-09-29T11:21:31.350Z,54.60
2018-09-29T11:23:59.853Z,54.60
2018-09-29T11:26:28.276Z,54.80
2018-09-29T11:28:56.574Z,54.50
2018-09-29T11:31:24.998Z,54.40
2018-09-29T11:33:53.433Z,54.90
2018-09-29T11:36:21.983Z,54.70
2018-09-29T11:38:50.348Z,54.80
2018-09-29T11:41:19.093Z,54.60
2018-09-29T11:43:47.846Z,54.40
2018-09-29T11:46:16.198Z,54.10
2018-09-29T11:48:44.813Z,54.40
2018-09-29T11:51:13.056Z,54.10
2018-09-29T11:53:41.390Z,54.20
2018-09-29T11:56:09.978Z,54.60
2018-09-29T11:58:38.326Z,54.60
2018-09-29T12:01:06.934Z,53.60
2018-09-29T12:03:35.323Z,53.10
2018-09-29T12:06:03.924Z,52.70
2018-09-29T12:08:32.228Z,52.80
2018-09-29T12:11:00.838Z,52.50
2018-09-29T12:13:29.217Z,52.60
2018-09-29T12:15:58.496Z,52.30
2018-09-29T12:18:27.107Z,52.70
2018-09-29T12:20:55.487Z,52.90
2018-09-29T12:23:24.089Z,53.30
2018-09-29T12:25:52.587Z,53.70
2018-09-29T12:28:21.415Z,53.60
2018-09-29T12:30:49.880Z,53.40
2018-09-29T12:33:18.497Z,53.30
2018-09-29T12:35:46.921Z,53.50
2018-09-29T12:38:15.422Z,53.50
2018-09-29T12:40:43.954Z,54.10
2018-09-29T12:43:12.347Z,54.30
2018-09-29T12:45:41.053Z,53.50
2018-09-29T12:48:09.598Z,52.60
2018-09-29T12:50:38.076Z,52.20
2018-09-29T12:53:06.665Z,52.50
2018-09-29T12:55:34.880Z,52.20
2018-09-29T12:58:03.600Z,50.30
2018-09-29T13:00:32.442Z,50.30
2018-09-29T13:03:01.019Z,50.60
2018-09-29T13:05:29.795Z,50.60
2018-09-29T13:07:58.470Z,50.80
2018-09-29T13:10:26.948Z,50.80
2018-09-29T13:12:55.554Z,50.10
2018-09-29T13:15:24.143Z,49.70
2018-09-29T13:17:52.542Z,49.90
2018-09-29T13:20:21.193Z,50.00
2018-09-29T13:22:50.029Z,50.00
2018-09-29T13:25:18.362Z,50.00
2018-09-29T13:27:46.977Z,50.00
2018-09-29T13:30:15.569Z,49.90
2018-09-29T13:32:44.207Z,50.00
2018-09-29T13:35:12.645Z,49.90
2018-09-29T13:37:41.296Z,50.10
2018-09-29T13:40:09.859Z,50.10
2018-09-29T13:42:44.857Z,49.60
2018-09-29T13:45:13.142Z,50.30
2018-09-29T13:47:41.606Z,50.40
2018-09-29T13:50:09.839Z,50.20
2018-09-29T13:52:38.899Z,49.90
2018-09-29T13:55:08.125Z,49.80
2018-09-29T13:57:37.212Z,49.90
2018-09-29T14:00:05.566Z,50.00
2018-09-29T14:02:34.015Z,50.10
2018-09-29T14:05:02.581Z,50.00
2018-09-29T14:07:31.153Z,49.80
2018-09-29T14:09:59.494Z,49.70
2018-09-29T14:12:27.807Z,50.00
2018-09-29T14:14:56.125Z,49.90
2018-09-29T14:17:24.563Z,49.90
2018-09-29T14:19:53.133Z,49.80
2018-09-29T14:22:21.526Z,49.90
2018-09-29T14:24:50.010Z,49.80
2018-09-29T14:27:18.455Z,49.70
2018-09-29T14:29:47.364Z,49.50
2018-09-29T14:32:15.624Z,49.50
2018-09-29T14:34:43.913Z,49.10
2018-09-29T14:37:12.530Z,49.00
2018-09-29T14:39:41.812Z,49.50
2018-09-29T14:42:10.475Z,49.50
2018-09-29T14:44:39.122Z,49.80
2018-09-29T14:47:07.464Z,49.40
2018-09-29T14:49:35.879Z,49.30
2018-09-29T14:52:04.230Z,49.70
2018-09-29T14:54:32.638Z,49.60
2018-09-29T14:57:01.008Z,49.50
2018-09-29T14:59:31.105Z,49.60
2018-09-29T15:01:59.489Z,49.50
2018-09-29T15:04:28.528Z,49.40
2018-09-29T15:06:56.920Z,49.00
2018-09-29T15:09:26.367Z,49.40
2018-09-29T15:11:55.227Z,49.20
2018-09-29T15:14:23.657Z,49.10
2018-09-29T15:16:52.004Z,49.40
2018-09-29T15:19:20.626Z,49.70
2018-09-29T15:21:49.267Z,49.80
2018-09-29T15:24:17.557Z,49.80
2018-09-29T15:26:46.197Z,49.90
2018-09-29T15:29:14.825Z,49.70
2018-09-29T15:31:43.338Z,49.50
2018-09-29T15:34:12.595Z,49.60
2018-09-29T15:36:41.335Z,49.80
2018-09-29T15:39:11.644Z,49.50
2018-09-29T15:41:40.345Z,49.30
2018-09-29T15:44:09.481Z,49.30
2018-09-29T15:46:39.617Z,49.40
2018-09-29T15:49:08.336Z,49.60
2018-09-29T15:51:37.772Z,49.80
2018-09-29T15:54:06.598Z,49.70
2018-09-29T15:56:36.226Z,49.80
2018-09-29T15:59:12.074Z,50.00
2018-09-29T16:01:40.959Z,50.30
2018-09-29T16:04:09.543Z,50.40
2018-09-29T16:09:19.267Z,50.30
2018-09-29T16:11:47.715Z,50.80
2018-09-29T16:14:16.336Z,50.10
2018-09-29T16:16:45.040Z,50.30
2018-09-29T16:19:13.619Z,50.20
2018-09-29T16:21:48.713Z,50.40
2018-09-29T16:24:17.258Z,50.50
2018-09-29T16:26:45.939Z,50.30
2018-09-29T16:29:15.362Z,50.10
2018-09-29T16:31:44.305Z,50.10
2018-09-29T16:34:12.939Z,50.30
2018-09-29T16:36:41.920Z,50.60
2018-09-29T16:39:12.635Z,50.70
2018-09-29T16:41:42.047Z,50.40
2018-09-29T16:44:11.286Z,50.70
2018-09-29T16:46:41.451Z,50.60
2018-09-29T16:49:10.034Z,50.70
2018-09-29T16:51:38.855Z,50.80
2018-09-29T16:54:07.586Z,50.80
2018-09-29T16:56:37.046Z,50.90
2018-09-29T16:59:06.088Z,51.00
2018-09-29T17:01:37.637Z,51.10
2018-09-29T17:04:13.597Z,51.30
2018-09-29T17:06:42.219Z,51.40
2018-09-29T17:09:12.171Z,52.10
2018-09-29T17:11:42.466Z,51.80
2018-09-29T17:14:12.657Z,52.10
2018-09-29T17:16:41.818Z,52.10
2018-09-29T17:19:11.484Z,52.30
2018-09-29T17:21:40.721Z,52.50
2018-09-29T17:24:15.153Z,52.60
2018-09-29T17:26:44.154Z,52.40
2018-09-29T17:29:13.313Z,52.50
2018-09-29T17:31:42.305Z,52.70
2018-09-29T17:34:12.232Z,53.00
2018-09-29T17:36:41.344Z,53.20
2018-09-29T17:39:11.660Z,53.30
2018-09-29T17:41:41.953Z,53.40
2018-09-29T17:44:11.114Z,53.60
2018-09-29T17:46:41.201Z,53.70
2018-09-29T17:49:10.433Z,53.70
2018-09-29T17:51:42.462Z,53.90
2018-09-29T17:54:12.827Z,53.90
2018-09-29T17:56:43.309Z,54.00
2018-09-29T17:59:12.239Z,54.00
2018-09-29T18:01:41.127Z,54.20
2018-09-29T18:04:10.309Z,54.20
2018-09-29T18:06:39.120Z,54.20
2018-09-29T18:09:10.806Z,54.40
2018-09-29T18:11:39.584Z,54.40
2018-09-29T18:14:08.396Z,54.50
2018-09-29T18:16:36.930Z,54.30
2018-09-29T18:19:05.754Z,54.40
2018-09-29T18:21:34.601Z,54.50
2018-09-29T18:24:03.385Z,54.50
2018-09-29T18:26:32.016Z,54.40
2018-09-29T18:29:00.624Z,54.60
2018-09-29T18:31:29.209Z,54.70
2018-09-29T18:33:58.145Z,54.80
2018-09-29T18:36:26.905Z,55.30
2018-09-29T18:38:56.820Z,55.30
2018-09-29T18:41:25.811Z,55.40
2018-09-29T18:43:54.346Z,55.60
2018-09-29T18:46:23.141Z,56.00
2018-09-29T18:48:52.247Z,56.00
2018-09-29T18:51:21.025Z,56.10
2018-09-29T18:53:49.765Z,56.30
2018-09-29T18:56:19.194Z,56.50
2018-09-29T18:58:47.569Z,56.50
2018-09-29T19:01:17.041Z,56.50
2018-09-29T19:06:23.724Z,56.60
2018-09-29T19:08:52.410Z,56.70
2018-09-29T19:11:20.902Z,56.80
2018-09-29T19:13:50.146Z,56.90
2018-09-29T19:16:21.147Z,57.00
2018-09-29T19:18:50.304Z,57.20
2018-09-29T19:21:19.066Z,57.40
2018-09-29T19:23:48.926Z,57.60
2018-09-29T19:26:18.012Z,57.80
2018-09-29T19:28:46.725Z,57.60
2018-09-29T19:31:15.429Z,57.60
2018-09-29T19:33:46.748Z,58.50
2018-09-29T19:36:16.251Z,57.80
2018-09-29T19:38:45.000Z,57.90
2018-09-29T19:41:14.214Z,57.90
2018-09-29T19:43:42.866Z,58.00
2018-09-29T19:46:13.071Z,58.00
2018-09-29T19:48:41.764Z,57.90
2018-09-29T19:51:10.654Z,58.20
2018-09-29T19:53:39.676Z,58.40
2018-09-29T19:56:08.563Z,58.40
2018-09-29T19:58:37.881Z,58.50
2018-09-29T20:01:07.164Z,58.40
2018-09-29T20:03:35.976Z,58.40
2018-09-29T20:06:05.025Z,58.50
2018-09-29T20:08:35.592Z,58.60
2018-09-29T20:11:04.013Z,58.80
2018-09-29T20:13:33.495Z,58.80
2018-09-29T20:16:02.183Z,58.90
2018-09-29T20:18:33.704Z,58.80
2018-09-29T20:21:02.710Z,58.70
2018-09-29T20:23:31.345Z,58.80
2018-09-29T20:26:00.930Z,58.70
2018-09-29T20:28:29.710Z,58.70
2018-09-29T20:31:14.734Z,58.80
2018-09-29T20:33:43.362Z,58.80
2018-09-29T20:36:12.090Z,59.00
2018-09-29T20:38:41.158Z,59.00
2018-09-29T20:41:09.815Z,59.20
2018-09-29T20:43:38.568Z,59.30
2018-09-29T20:46:08.194Z,59.50
2018-09-29T20:48:38.414Z,59.60
2018-09-29T20:51:07.025Z,59.80
2018-09-29T20:53:36.477Z,59.70
2018-09-29T20:56:05.239Z,60.30
2018-09-29T20:58:34.848Z,59.70
2018-09-29T21:01:04.120Z,59.50
2018-09-29T21:03:32.962Z,59.40
2018-09-29T21:06:02.282Z,59.60
2018-09-29T21:08:31.658Z,59.40
2018-09-29T21:11:01.360Z,59.50
2018-09-29T21:13:30.075Z,59.10
2018-09-29T21:15:58.562Z,58.70
2018-09-29T21:18:27.382Z,58.30
2018-09-29T21:20:55.866Z,58.10
2018-09-29T21:23:24.647Z,58.00
2018-09-29T21:25:53.272Z,57.80
2018-09-29T21:28:21.974Z,57.50
2018-09-29T21:30:50.398Z,57.40
2018-09-29T21:33:18.938Z,57.30
2018-09-29T21:35:47.330Z,57.20
2018-09-29T21:38:16.153Z,57.30
2018-09-29T21:40:44.656Z,57.30
2018-09-29T21:43:13.176Z,57.60
2018-09-29T21:45:41.828Z,57.50
2018-09-29T21:48:11.510Z,57.60
2018-09-29T21:50:40.304Z,57.60
2018-09-29T21:53:08.673Z,57.60
2018-09-29T21:55:37.172Z,57.80
2018-09-29T21:58:05.781Z,57.80
2018-09-29T22:00:39.503Z,57.80
2018-09-29T22:03:08.140Z,57.70
2018-09-29T22:05:38.026Z,57.60
2018-09-29T22:08:07.265Z,57.40
2018-09-29T22:10:35.888Z,57.50
2018-09-29T22:13:04.801Z,57.60
2018-09-29T22:15:33.657Z,57.50
2018-09-29T22:18:03.326Z,57.80
2018-09-29T22:20:32.184Z,57.70
2018-09-29T22:23:01.058Z,57.80
2018-09-29T22:25:29.681Z,57.70
2018-09-29T22:27:58.175Z,58.00
2018-09-29T22:30:26.724Z,58.40
2018-09-29T22:32:55.028Z,58.20
2018-09-29T22:35:23.749Z,58.20
2018-09-29T22:37:52.151Z,58.10
2018-09-29T22:40:20.704Z,57.90
2018-09-29T22:42:49.286Z,57.70
2018-09-29T22:45:18.203Z,57.20
2018-09-29T22:47:46.576Z,56.90
2018-09-29T22:50:14.995Z,56.60
2018-09-29T22:52:43.395Z,56.30
2018-09-29T22:55:11.779Z,56.00
2018-09-29T22:57:41.896Z,56.20
2018-09-29T23:00:10.523Z,56.10
2018-09-29T23:02:39.102Z,56.20
2018-09-29T23:05:07.586Z,56.30
2018-09-29T23:07:35.870Z,56.30
2018-09-29T23:10:04.209Z,56.00
2018-09-29T23:12:32.609Z,55.90
2018-09-29T23:15:01.041Z,55.70
2018-09-29T23:17:29.346Z,55.80
2018-09-29T23:19:57.699Z,55.60
2018-09-29T23:22:26.319Z,55.80
2018-09-29T23:24:54.651Z,55.80
2018-09-29T23:27:22.916Z,55.60
2018-09-29T23:29:51.331Z,55.50
2018-09-29T23:32:19.563Z,55.60
2018-09-29T23:34:47.858Z,55.50
2018-09-29T23:37:16.167Z,55.60
2018-09-29T23:39:44.415Z,55.70
2018-09-29T23:42:12.711Z,55.70
2018-09-29T23:44:41.053Z,55.50
2018-09-29T23:47:09.564Z,55.40
2018-09-29T23:49:37.866Z,55.60
2018-09-29T23:52:06.240Z,55.60
2018-09-29T23:54:34.556Z,55.60
2018-09-29T23:57:02.813Z,55.70
2018-09-29T23:59:31.154Z,55.80
